Pagina principale
METAR-TAF:

METAR-TAF

Aeroporti :

Aeroporto Internazionale di Damasco

Damasco, Siria

latitudine: 33-25N, longitudine: 036-31E, altezza: 608 m

Osservazione

Il bollettino è stato emesso 1 ora e 50 minuti fa, alle 13:00 UTC
Vento 12 kt da nord/nord-ovest
Temperature 35°C
Umidità 10%
Pressione 1013 hPa
Visibilità 10 km o più
Poco nuvoloso ad un'altezza di 3000 ft

METAR: OSDI 211300Z 34012KT 9999 FEW030 35/M01 Q1013

Ora: 17:50 (14:50 UTC)

Previsione

Il bollettino è stato emesso 4 ore e 50 minuti fa, alle 10:00 UTC
Previsione valida dal 21 alle 12 UTC al 22 alle 18 UTC
Vento 10 kt da sud/sud-ovest
Visibilità 10 km o più
Poco nuvoloso ad un'altezza di 3000 ft
Nubi sparse ad un'altezza di 10000 ft
Temporaneamente
dal 21 alle 13 UTC al 21 alle 18 UTC
Vento 15 kt da ovest/sud-ovest con raffiche fino a 25 kt

TAF: OSDI 211000Z 2112/2218 21010KT 9999 FEW030 SCT100 TEMPO 2113/2118 25015G25KT

Osservazioni e previsioni meteorologiche di più di 4000 aeroporti (messaggi METAR e TAF).

Le stazioni disponibili sono rappresentate dai dischi gialli e rossi sulla carta.

Puntare il mouse per vedere il nome della stazione.

Clicca sopra per visualizzare le osservazioni e previsioni meteorologiche.

Per cambiare la mappa : fare clic sui pulsanti verdi con una croce nera per ingrandire, il pulsante verde con un trattino per diminuire, o sulla freccia verde per le mappe adiacenti.


METAR-TAF: